KGRK/GRK METAR and TAF weather

Enter ICAO airport designator
Station Type Date Time Source
KGRK METAR 2019/12/09 21:58 UTC NOAA

KGRK 092158Z AUTO 36010KT 10SM CLR 25/05 A2981 RMK AO2 SLP087 T02520053


Station Type Date Time Source
KGRK Decoded METAR 2019/12/09 21:58 UTC NOAA

Fort Hood, Robert Gray AAF Ft Hood, TX, United States (KGRK) 31-04N 097-49W
Dec 09, 2019 - 04:58 PM EST / 2019.12.09 2158 UTC
Wind: from the N (360 degrees) at 12 MPH (10 KT):0
Visibility: 10 mile(s):0
Sky conditions: clear
Temperature: 77.4 F (25.2 C)
Dew Point: 41.5 F (5.3 C)
Relative Humidity: 27%
Pressure (altimeter): 29.81 in. Hg (1009 hPa)
ob: KGRK 092158Z AUTO 36010KT 10SM CLR 25/05 A2981 RMK AO2 SLP087 T02520053
cycle: 22

Station Type Date Time Source
KGRK TAF 2019/12/09 19:31 UTC NOAA

TAF
AMD KGRK 091911Z 0919/1022 33010G15KT 9999 SCT015 BKN200 QNH2979INS
BECMG 0923/0924 01012KT 9999 BKN040 QNH2983INS
BECMG 1005/1006 36015G25KT 8000 -SHRA OVC030 QNH2995INS
BECMG 1010/1011 01012G18KT 4800 -RA BR OVC005 510052 QNH3000INS TX28/0921Z TN06/1015Z

Example: see airport list